sensor_id;sensor_type;location;lat;lon;timestamp;P1;durP1;ratioP1;P2;durP2;ratioP2
15848;SDS011;8024;48.708;9.394;2022-12-15T00:01:02;34.77;;;21.97;;
15848;SDS011;8024;48.708;9.394;2022-12-15T00:03:48;30.20;;;20.30;;
15848;SDS011;8024;48.708;9.394;2022-12-15T00:06:34;33.73;;;22.93;;
15848;SDS011;8024;48.708;9.394;2022-12-15T00:09:18;31.30;;;20.10;;
15848;SDS011;8024;48.708;9.394;2022-12-15T00:12:03;35.93;;;21.13;;
15848;SDS011;8024;48.708;9.394;2022-12-15T00:14:48;33.43;;;21.23;;
15848;SDS011;8024;48.708;9.394;2022-12-15T00:17:32;34.13;;;21.10;;
15848;SDS011;8024;48.708;9.394;2022-12-15T00:20:17;31.50;;;20.53;;
15848;SDS011;8024;48.708;9.394;2022-12-15T00:23:07;29.97;;;20.77;;
15848;SDS011;8024;48.708;9.394;2022-12-15T00:25:52;29.70;;;20.20;;
15848;SDS011;8024;48.708;9.394;2022-12-15T00:28:37;32.83;;;21.90;;
15848;SDS011;8024;48.708;9.394;2022-12-15T00:31:22;31.90;;;21.13;;
15848;SDS011;8024;48.708;9.394;2022-12-15T00:34:07;31.97;;;21.00;;
15848;SDS011;8024;48.708;9.394;2022-12-15T00:36:52;33.10;;;22.33;;
15848;SDS011;8024;48.708;9.394;2022-12-15T00:39:39;37.30;;;23.07;;
15848;SDS011;8024;48.708;9.394;2022-12-15T00:42:06;40.17;;;24.53;;
15848;SDS011;8024;48.708;9.394;2022-12-15T00:44:33;43.37;;;26.97;;
15848;SDS011;8024;48.708;9.394;2022-12-15T00:47:01;55.50;;;29.33;;
15848;SDS011;8024;48.708;9.394;2022-12-15T00:49:28;47.00;;;26.83;;
15848;SDS011;8024;48.708;9.394;2022-12-15T00:52:14;47.07;;;25.37;;
15848;SDS011;8024;48.708;9.394;2022-12-15T00:55:01;41.07;;;24.43;;
15848;SDS011;8024;48.708;9.394;2022-12-15T00:57:46;38.10;;;23.80;;
15848;SDS011;8024;48.708;9.394;2022-12-15T01:00:32;37.60;;;23.80;;
15848;SDS011;8024;48.708;9.394;2022-12-15T01:03:17;35.30;;;23.00;;
15848;SDS011;8024;48.708;9.394;2022-12-15T01:06:04;35.20;;;21.83;;
15848;SDS011;8024;48.708;9.394;2022-12-15T01:08:50;33.83;;;22.63;;
15848;SDS011;8024;48.708;9.394;2022-12-15T01:11:36;39.27;;;23.93;;
15848;SDS011;8024;48.708;9.394;2022-12-15T01:14:21;35.57;;;22.40;;
15848;SDS011;8024;48.708;9.394;2022-12-15T01:17:05;34.13;;;22.27;;
15848;SDS011;8024;48.708;9.394;2022-12-15T01:19:50;34.80;;;22.80;;
15848;SDS011;8024;48.708;9.394;2022-12-15T01:22:36;28.50;;;20.00;;
15848;SDS011;8024;48.708;9.394;2022-12-15T01:25:04;31.90;;;21.33;;
15848;SDS011;8024;48.708;9.394;2022-12-15T01:27:33;31.00;;;20.67;;
15848;SDS011;8024;48.708;9.394;2022-12-15T01:30:01;33.33;;;21.40;;
15848;SDS011;8024;48.708;9.394;2022-12-15T01:32:29;34.10;;;22.53;;
15848;SDS011;8024;48.708;9.394;2022-12-15T01:34:56;30.43;;;21.70;;
15848;SDS011;8024;48.708;9.394;2022-12-15T01:37:23;29.60;;;20.07;;
15848;SDS011;8024;48.708;9.394;2022-12-15T01:39:51;34.33;;;21.60;;
15848;SDS011;8024;48.708;9.394;2022-12-15T01:42:33;35.70;;;20.77;;
15848;SDS011;8024;48.708;9.394;2022-12-15T01:48:03;31.93;;;20.50;;
15848;SDS011;8024;48.708;9.394;2022-12-15T01:50:33;34.73;;;22.30;;
15848;SDS011;8024;48.708;9.394;2022-12-15T01:53:04;31.87;;;22.00;;
15848;SDS011;8024;48.708;9.394;2022-12-15T01:55:32;33.93;;;21.83;;
15848;SDS011;8024;48.708;9.394;2022-12-15T01:58:01;37.40;;;22.33;;
15848;SDS011;8024;48.708;9.394;2022-12-15T02:00:30;36.93;;;23.30;;
15848;SDS011;8024;48.708;9.394;2022-12-15T02:02:58;33.83;;;22.23;;
15848;SDS011;8024;48.708;9.394;2022-12-15T02:05:26;36.43;;;23.70;;
15848;SDS011;8024;48.708;9.394;2022-12-15T02:07:55;34.93;;;22.73;;
15848;SDS011;8024;48.708;9.394;2022-12-15T02:10:24;33.57;;;22.27;;
15848;SDS011;8024;48.708;9.394;2022-12-15T02:13:01;35.80;;;22.80;;
15848;SDS011;8024;48.708;9.394;2022-12-15T02:15:32;34.73;;;21.97;;
15848;SDS011;8024;48.708;9.394;2022-12-15T02:18:05;31.23;;;21.33;;
15848;SDS011;8024;48.708;9.394;2022-12-15T02:20:46;29.47;;;21.23;;
15848;SDS011;8024;48.708;9.394;2022-12-15T02:26:37;32.03;;;20.90;;
15848;SDS011;8024;48.708;9.394;2022-12-15T02:29:30;31.03;;;21.20;;
15848;SDS011;8024;48.708;9.394;2022-12-15T02:32:19;33.27;;;21.73;;
15848;SDS011;8024;48.708;9.394;2022-12-15T02:34:52;35.80;;;22.40;;
15848;SDS011;8024;48.708;9.394;2022-12-15T02:37:23;34.93;;;23.37;;
15848;SDS011;8024;48.708;9.394;2022-12-15T02:39:54;35.90;;;23.10;;
15848;SDS011;8024;48.708;9.394;2022-12-15T02:42:21;30.20;;;21.13;;
15848;SDS011;8024;48.708;9.394;2022-12-15T02:44:50;33.63;;;22.07;;
15848;SDS011;8024;48.708;9.394;2022-12-15T02:47:26;33.80;;;21.37;;
15848;SDS011;8024;48.708;9.394;2022-12-15T02:50:06;31.67;;;19.60;;
15848;SDS011;8024;48.708;9.394;2022-12-15T02:52:49;32.57;;;21.20;;
15848;SDS011;8024;48.708;9.394;2022-12-15T02:55:27;35.50;;;21.17;;
15848;SDS011;8024;48.708;9.394;2022-12-15T02:58:01;35.13;;;22.57;;
15848;SDS011;8024;48.708;9.394;2022-12-15T03:00:35;34.77;;;22.00;;
15848;SDS011;8024;48.708;9.394;2022-12-15T03:03:06;38.27;;;22.10;;
15848;SDS011;8024;48.708;9.394;2022-12-15T03:05:34;39.07;;;23.60;;
15848;SDS011;8024;48.708;9.394;2022-12-15T03:08:01;34.03;;;21.73;;
15848;SDS011;8024;48.708;9.394;2022-12-15T03:10:28;34.40;;;22.53;;
15848;SDS011;8024;48.708;9.394;2022-12-15T03:12:56;36.50;;;20.73;;
15848;SDS011;8024;48.708;9.394;2022-12-15T03:15:23;35.63;;;22.17;;
15848;SDS011;8024;48.708;9.394;2022-12-15T03:17:51;34.07;;;22.67;;
15848;SDS011;8024;48.708;9.394;2022-12-15T03:20:19;34.53;;;22.33;;
15848;SDS011;8024;48.708;9.394;2022-12-15T03:22:46;34.20;;;21.13;;
15848;SDS011;8024;48.708;9.394;2022-12-15T03:25:13;35.70;;;21.97;;
15848;SDS011;8024;48.708;9.394;2022-12-15T03:27:41;33.47;;;21.60;;
15848;SDS011;8024;48.708;9.394;2022-12-15T03:30:08;35.33;;;22.03;;
15848;SDS011;8024;48.708;9.394;2022-12-15T03:32:36;33.73;;;21.33;;
15848;SDS011;8024;48.708;9.394;2022-12-15T03:35:04;31.67;;;21.53;;
15848;SDS011;8024;48.708;9.394;2022-12-15T03:37:33;29.57;;;19.93;;
15848;SDS011;8024;48.708;9.394;2022-12-15T03:40:00;32.73;;;21.27;;
15848;SDS011;8024;48.708;9.394;2022-12-15T03:42:27;34.40;;;21.20;;
15848;SDS011;8024;48.708;9.394;2022-12-15T03:45:13;32.10;;;20.20;;
15848;SDS011;8024;48.708;9.394;2022-12-15T03:47:42;33.03;;;21.03;;
15848;SDS011;8024;48.708;9.394;2022-12-15T03:50:10;33.07;;;22.17;;
15848;SDS011;8024;48.708;9.394;2022-12-15T03:52:40;34.17;;;22.30;;
15848;SDS011;8024;48.708;9.394;2022-12-15T03:55:07;32.83;;;22.50;;
15848;SDS011;8024;48.708;9.394;2022-12-15T03:57:35;31.67;;;21.10;;
15848;SDS011;8024;48.708;9.394;2022-12-15T04:00:03;29.93;;;21.17;;
15848;SDS011;8024;48.708;9.394;2022-12-15T04:02:31;31.97;;;20.87;;
15848;SDS011;8024;48.708;9.394;2022-12-15T04:04:58;32.90;;;21.50;;
15848;SDS011;8024;48.708;9.394;2022-12-15T04:07:26;35.53;;;22.30;;
15848;SDS011;8024;48.708;9.394;2022-12-15T04:09:54;33.30;;;21.07;;
15848;SDS011;8024;48.708;9.394;2022-12-15T04:12:21;34.23;;;22.37;;
15848;SDS011;8024;48.708;9.394;2022-12-15T04:14:48;35.80;;;22.30;;
15848;SDS011;8024;48.708;9.394;2022-12-15T04:17:18;34.10;;;22.10;;
15848;SDS011;8024;48.708;9.394;2022-12-15T04:19:45;32.47;;;21.37;;
15848;SDS011;8024;48.708;9.394;2022-12-15T04:22:30;37.57;;;21.83;;
15848;SDS011;8024;48.708;9.394;2022-12-15T04:24:58;33.83;;;21.30;;
15848;SDS011;8024;48.708;9.394;2022-12-15T04:27:43;34.50;;;21.97;;
15848;SDS011;8024;48.708;9.394;2022-12-15T04:30:28;35.83;;;22.17;;
15848;SDS011;8024;48.708;9.394;2022-12-15T04:33:14;32.07;;;21.23;;
15848;SDS011;8024;48.708;9.394;2022-12-15T04:35:59;32.50;;;20.87;;
15848;SDS011;8024;48.708;9.394;2022-12-15T04:38:44;35.73;;;21.63;;
15848;SDS011;8024;48.708;9.394;2022-12-15T04:41:30;31.50;;;21.37;;
15848;SDS011;8024;48.708;9.394;2022-12-15T04:44:16;36.40;;;22.93;;
15848;SDS011;8024;48.708;9.394;2022-12-15T04:47:00;37.03;;;22.17;;
15848;SDS011;8024;48.708;9.394;2022-12-15T04:49:45;38.07;;;23.30;;
15848;SDS011;8024;48.708;9.394;2022-12-15T04:52:30;38.03;;;23.53;;
15848;SDS011;8024;48.708;9.394;2022-12-15T04:55:14;33.23;;;22.47;;
15848;SDS011;8024;48.708;9.394;2022-12-15T04:58:04;37.13;;;22.93;;
15848;SDS011;8024;48.708;9.394;2022-12-15T05:00:50;34.13;;;21.13;;
15848;SDS011;8024;48.708;9.394;2022-12-15T05:03:34;34.27;;;22.87;;
15848;SDS011;8024;48.708;9.394;2022-12-15T05:06:19;36.37;;;21.90;;
15848;SDS011;8024;48.708;9.394;2022-12-15T05:09:04;35.57;;;22.73;;
15848;SDS011;8024;48.708;9.394;2022-12-15T05:11:49;31.73;;;20.80;;
15848;SDS011;8024;48.708;9.394;2022-12-15T05:14:35;33.47;;;20.47;;
15848;SDS011;8024;48.708;9.394;2022-12-15T05:17:19;35.03;;;22.93;;
15848;SDS011;8024;48.708;9.394;2022-12-15T05:20:04;39.73;;;22.30;;
15848;SDS011;8024;48.708;9.394;2022-12-15T05:22:53;33.47;;;20.83;;
15848;SDS011;8024;48.708;9.394;2022-12-15T05:25:39;34.73;;;22.20;;
15848;SDS011;8024;48.708;9.394;2022-12-15T05:28:24;35.53;;;21.47;;
15848;SDS011;8024;48.708;9.394;2022-12-15T05:31:10;31.73;;;21.20;;
15848;SDS011;8024;48.708;9.394;2022-12-15T05:33:55;33.73;;;22.23;;
15848;SDS011;8024;48.708;9.394;2022-12-15T05:36:23;32.67;;;21.70;;
15848;SDS011;8024;48.708;9.394;2022-12-15T05:38:50;35.90;;;22.03;;
15848;SDS011;8024;48.708;9.394;2022-12-15T05:41:19;35.37;;;21.83;;
15848;SDS011;8024;48.708;9.394;2022-12-15T05:43:47;33.97;;;22.10;;
15848;SDS011;8024;48.708;9.394;2022-12-15T05:46:16;33.90;;;21.50;;
15848;SDS011;8024;48.708;9.394;2022-12-15T05:48:43;38.27;;;22.40;;
15848;SDS011;8024;48.708;9.394;2022-12-15T05:51:11;34.00;;;22.23;;
15848;SDS011;8024;48.708;9.394;2022-12-15T05:53:39;32.07;;;20.83;;
15848;SDS011;8024;48.708;9.394;2022-12-15T05:56:07;34.27;;;21.77;;
15848;SDS011;8024;48.708;9.394;2022-12-15T05:58:36;37.97;;;23.03;;
15848;SDS011;8024;48.708;9.394;2022-12-15T06:01:04;33.83;;;22.67;;
15848;SDS011;8024;48.708;9.394;2022-12-15T06:03:34;37.57;;;22.10;;
15848;SDS011;8024;48.708;9.394;2022-12-15T06:06:02;33.73;;;21.63;;
15848;SDS011;8024;48.708;9.394;2022-12-15T06:08:31;30.37;;;20.83;;
15848;SDS011;8024;48.708;9.394;2022-12-15T06:10:59;36.07;;;21.50;;
15848;SDS011;8024;48.708;9.394;2022-12-15T06:13:27;37.13;;;23.77;;
15848;SDS011;8024;48.708;9.394;2022-12-15T06:15:56;35.47;;;20.73;;
15848;SDS011;8024;48.708;9.394;2022-12-15T06:18:27;34.83;;;21.50;;
15848;SDS011;8024;48.708;9.394;2022-12-15T06:20:57;34.03;;;21.80;;
15848;SDS011;8024;48.708;9.394;2022-12-15T06:23:24;33.90;;;21.93;;
15848;SDS011;8024;48.708;9.394;2022-12-15T06:25:52;34.27;;;22.67;;
15848;SDS011;8024;48.708;9.394;2022-12-15T06:28:20;35.00;;;21.37;;
15848;SDS011;8024;48.708;9.394;2022-12-15T06:30:48;35.33;;;21.63;;
15848;SDS011;8024;48.708;9.394;2022-12-15T06:33:17;35.87;;;21.33;;
15848;SDS011;8024;48.708;9.394;2022-12-15T06:35:45;30.40;;;20.07;;
15848;SDS011;8024;48.708;9.394;2022-12-15T06:38:13;35.37;;;21.67;;
15848;SDS011;8024;48.708;9.394;2022-12-15T06:40:41;33.40;;;21.43;;
15848;SDS011;8024;48.708;9.394;2022-12-15T06:43:08;32.60;;;20.43;;
15848;SDS011;8024;48.708;9.394;2022-12-15T06:45:35;33.77;;;21.47;;
15848;SDS011;8024;48.708;9.394;2022-12-15T06:48:02;37.60;;;22.70;;
15848;SDS011;8024;48.708;9.394;2022-12-15T06:50:30;35.13;;;22.50;;
15848;SDS011;8024;48.708;9.394;2022-12-15T06:52:58;35.43;;;22.23;;
15848;SDS011;8024;48.708;9.394;2022-12-15T06:55:27;34.30;;;21.27;;
15848;SDS011;8024;48.708;9.394;2022-12-15T06:57:54;34.90;;;21.97;;
15848;SDS011;8024;48.708;9.394;2022-12-15T07:00:21;36.43;;;20.73;;
15848;SDS011;8024;48.708;9.394;2022-12-15T07:02:49;38.83;;;22.77;;
15848;SDS011;8024;48.708;9.394;2022-12-15T07:05:16;34.73;;;20.97;;
15848;SDS011;8024;48.708;9.394;2022-12-15T07:07:43;34.53;;;22.27;;
15848;SDS011;8024;48.708;9.394;2022-12-15T07:10:10;32.97;;;20.37;;
15848;SDS011;8024;48.708;9.394;2022-12-15T07:12:39;35.23;;;21.03;;
15848;SDS011;8024;48.708;9.394;2022-12-15T07:15:06;34.43;;;21.40;;
15848;SDS011;8024;48.708;9.394;2022-12-15T07:17:35;36.97;;;21.27;;
15848;SDS011;8024;48.708;9.394;2022-12-15T07:20:02;36.63;;;21.77;;
15848;SDS011;8024;48.708;9.394;2022-12-15T07:22:30;37.60;;;20.77;;
15848;SDS011;8024;48.708;9.394;2022-12-15T07:24:57;35.30;;;21.33;;
15848;SDS011;8024;48.708;9.394;2022-12-15T07:27:24;35.37;;;21.33;;
15848;SDS011;8024;48.708;9.394;2022-12-15T07:29:53;33.00;;;21.27;;
15848;SDS011;8024;48.708;9.394;2022-12-15T07:32:20;36.57;;;21.17;;
15848;SDS011;8024;48.708;9.394;2022-12-15T07:34:47;31.47;;;20.40;;
15848;SDS011;8024;48.708;9.394;2022-12-15T07:37:15;35.20;;;21.13;;
15848;SDS011;8024;48.708;9.394;2022-12-15T07:39:42;33.63;;;21.47;;
15848;SDS011;8024;48.708;9.394;2022-12-15T07:42:09;35.27;;;20.90;;
15848;SDS011;8024;48.708;9.394;2022-12-15T07:44:36;35.33;;;21.13;;
15848;SDS011;8024;48.708;9.394;2022-12-15T07:47:05;31.97;;;19.93;;
15848;SDS011;8024;48.708;9.394;2022-12-15T07:49:32;32.80;;;19.47;;
15848;SDS011;8024;48.708;9.394;2022-12-15T07:51:59;33.63;;;21.17;;
15848;SDS011;8024;48.708;9.394;2022-12-15T07:54:26;33.23;;;20.57;;
15848;SDS011;8024;48.708;9.394;2022-12-15T07:56:54;32.27;;;19.77;;
15848;SDS011;8024;48.708;9.394;2022-12-15T07:59:21;36.20;;;21.47;;
15848;SDS011;8024;48.708;9.394;2022-12-15T08:01:48;36.70;;;19.43;;
15848;SDS011;8024;48.708;9.394;2022-12-15T08:04:17;36.57;;;20.33;;
15848;SDS011;8024;48.708;9.394;2022-12-15T08:06:44;33.00;;;19.47;;
15848;SDS011;8024;48.708;9.394;2022-12-15T08:09:12;33.17;;;20.73;;
15848;SDS011;8024;48.708;9.394;2022-12-15T08:11:39;34.70;;;19.93;;
15848;SDS011;8024;48.708;9.394;2022-12-15T08:14:07;31.50;;;20.13;;
15848;SDS011;8024;48.708;9.394;2022-12-15T08:16:34;36.60;;;21.10;;
15848;SDS011;8024;48.708;9.394;2022-12-15T08:19:02;31.23;;;20.40;;
15848;SDS011;8024;48.708;9.394;2022-12-15T08:21:31;33.10;;;21.50;;
15848;SDS011;8024;48.708;9.394;2022-12-15T08:23:59;34.50;;;21.40;;
15848;SDS011;8024;48.708;9.394;2022-12-15T08:26:26;35.43;;;20.27;;
15848;SDS011;8024;48.708;9.394;2022-12-15T08:28:53;36.87;;;21.67;;
15848;SDS011;8024;48.708;9.394;2022-12-15T08:31:21;35.80;;;21.70;;
15848;SDS011;8024;48.708;9.394;2022-12-15T08:33:49;39.50;;;21.97;;
15848;SDS011;8024;48.708;9.394;2022-12-15T08:36:17;35.03;;;21.43;;
15848;SDS011;8024;48.708;9.394;2022-12-15T08:38:46;33.93;;;22.57;;
15848;SDS011;8024;48.708;9.394;2022-12-15T08:41:14;35.47;;;21.00;;
15848;SDS011;8024;48.708;9.394;2022-12-15T08:43:43;32.87;;;21.10;;
15848;SDS011;8024;48.708;9.394;2022-12-15T08:46:11;37.20;;;22.00;;
15848;SDS011;8024;48.708;9.394;2022-12-15T08:48:39;36.67;;;23.13;;
15848;SDS011;8024;48.708;9.394;2022-12-15T08:51:06;35.70;;;22.53;;
15848;SDS011;8024;48.708;9.394;2022-12-15T08:53:34;34.37;;;21.37;;
15848;SDS011;8024;48.708;9.394;2022-12-15T08:56:03;34.17;;;22.00;;
15848;SDS011;8024;48.708;9.394;2022-12-15T08:58:31;34.27;;;21.13;;
15848;SDS011;8024;48.708;9.394;2022-12-15T09:00:58;33.27;;;21.60;;
15848;SDS011;8024;48.708;9.394;2022-12-15T09:03:26;33.00;;;20.63;;
15848;SDS011;8024;48.708;9.394;2022-12-15T09:05:53;36.13;;;22.23;;
15848;SDS011;8024;48.708;9.394;2022-12-15T09:08:21;33.93;;;21.60;;
15848;SDS011;8024;48.708;9.394;2022-12-15T09:10:49;30.63;;;20.17;;
15848;SDS011;8024;48.708;9.394;2022-12-15T09:13:17;34.10;;;21.97;;
15848;SDS011;8024;48.708;9.394;2022-12-15T09:15:44;33.80;;;20.40;;
15848;SDS011;8024;48.708;9.394;2022-12-15T09:18:12;31.57;;;19.90;;
15848;SDS011;8024;48.708;9.394;2022-12-15T09:20:40;33.73;;;20.20;;
15848;SDS011;8024;48.708;9.394;2022-12-15T09:23:07;31.27;;;19.97;;
15848;SDS011;8024;48.708;9.394;2022-12-15T09:25:34;32.27;;;19.97;;
15848;SDS011;8024;48.708;9.394;2022-12-15T09:28:02;26.97;;;18.43;;
15848;SDS011;8024;48.708;9.394;2022-12-15T09:30:30;30.23;;;19.77;;
15848;SDS011;8024;48.708;9.394;2022-12-15T09:32:57;29.27;;;18.80;;
15848;SDS011;8024;48.708;9.394;2022-12-15T09:35:25;28.07;;;19.30;;
15848;SDS011;8024;48.708;9.394;2022-12-15T09:37:53;27.83;;;19.47;;
15848;SDS011;8024;48.708;9.394;2022-12-15T09:40:22;31.87;;;19.77;;
15848;SDS011;8024;48.708;9.394;2022-12-15T09:42:50;27.67;;;19.70;;
15848;SDS011;8024;48.708;9.394;2022-12-15T09:45:21;29.13;;;20.20;;
15848;SDS011;8024;48.708;9.394;2022-12-15T09:47:54;28.57;;;18.93;;
15848;SDS011;8024;48.708;9.394;2022-12-15T09:50:27;31.27;;;19.70;;
15848;SDS011;8024;48.708;9.394;2022-12-15T09:53:00;32.20;;;20.13;;
15848;SDS011;8024;48.708;9.394;2022-12-15T09:55:29;27.53;;;19.50;;
15848;SDS011;8024;48.708;9.394;2022-12-15T09:57:58;28.43;;;18.67;;
15848;SDS011;8024;48.708;9.394;2022-12-15T10:00:28;27.87;;;18.83;;
15848;SDS011;8024;48.708;9.394;2022-12-15T10:03:14;29.00;;;20.00;;
15848;SDS011;8024;48.708;9.394;2022-12-15T10:06:06;27.47;;;18.87;;
15848;SDS011;8024;48.708;9.394;2022-12-15T10:08:36;27.33;;;18.27;;
15848;SDS011;8024;48.708;9.394;2022-12-15T10:11:12;30.37;;;20.13;;
15848;SDS011;8024;48.708;9.394;2022-12-15T10:13:46;32.60;;;19.57;;
15848;SDS011;8024;48.708;9.394;2022-12-15T10:16:20;25.50;;;17.37;;
15848;SDS011;8024;48.708;9.394;2022-12-15T10:18:58;28.73;;;19.43;;
15848;SDS011;8024;48.708;9.394;2022-12-15T10:21:31;26.50;;;18.77;;
15848;SDS011;8024;48.708;9.394;2022-12-15T10:24:03;27.70;;;19.20;;
15848;SDS011;8024;48.708;9.394;2022-12-15T10:26:41;30.33;;;20.80;;
15848;SDS011;8024;48.708;9.394;2022-12-15T10:29:21;33.97;;;20.60;;
15848;SDS011;8024;48.708;9.394;2022-12-15T10:31:58;32.77;;;20.33;;
15848;SDS011;8024;48.708;9.394;2022-12-15T10:34:31;28.50;;;18.60;;
15848;SDS011;8024;48.708;9.394;2022-12-15T10:36:59;26.63;;;18.20;;
15848;SDS011;8024;48.708;9.394;2022-12-15T10:39:34;29.30;;;19.27;;
15848;SDS011;8024;48.708;9.394;2022-12-15T10:42:14;28.87;;;19.53;;
15848;SDS011;8024;48.708;9.394;2022-12-15T10:44:46;29.37;;;19.17;;
15848;SDS011;8024;48.708;9.394;2022-12-15T10:47:16;29.47;;;18.80;;
15848;SDS011;8024;48.708;9.394;2022-12-15T10:49:46;30.77;;;19.33;;
15848;SDS011;8024;48.708;9.394;2022-12-15T10:52:15;28.53;;;19.20;;
15848;SDS011;8024;48.708;9.394;2022-12-15T10:54:48;28.77;;;18.33;;
15848;SDS011;8024;48.708;9.394;2022-12-15T10:57:17;30.67;;;19.50;;
15848;SDS011;8024;48.708;9.394;2022-12-15T10:59:46;30.70;;;19.27;;
15848;SDS011;8024;48.708;9.394;2022-12-15T11:02:17;29.57;;;19.67;;
15848;SDS011;8024;48.708;9.394;2022-12-15T11:04:55;30.43;;;20.93;;
15848;SDS011;8024;48.708;9.394;2022-12-15T11:07:24;27.67;;;18.03;;
15848;SDS011;8024;48.708;9.394;2022-12-15T11:09:57;27.60;;;18.27;;
15848;SDS011;8024;48.708;9.394;2022-12-15T11:12:27;24.97;;;17.67;;
15848;SDS011;8024;48.708;9.394;2022-12-15T11:18:05;31.43;;;20.10;;
15848;SDS011;8024;48.708;9.394;2022-12-15T11:20:49;31.30;;;19.60;;
15848;SDS011;8024;48.708;9.394;2022-12-15T11:23:20;26.70;;;17.87;;
15848;SDS011;8024;48.708;9.394;2022-12-15T11:25:54;25.90;;;18.23;;
15848;SDS011;8024;48.708;9.394;2022-12-15T11:28:27;28.50;;;19.47;;
15848;SDS011;8024;48.708;9.394;2022-12-15T11:31:01;28.17;;;17.77;;
15848;SDS011;8024;48.708;9.394;2022-12-15T11:33:34;29.23;;;17.47;;
15848;SDS011;8024;48.708;9.394;2022-12-15T11:36:07;26.63;;;17.80;;
15848;SDS011;8024;48.708;9.394;2022-12-15T11:38:43;25.37;;;17.03;;
15848;SDS011;8024;48.708;9.394;2022-12-15T11:41:16;28.47;;;18.03;;
15848;SDS011;8024;48.708;9.394;2022-12-15T11:44:07;28.33;;;17.60;;
15848;SDS011;8024;48.708;9.394;2022-12-15T11:46:49;24.13;;;17.03;;
15848;SDS011;8024;48.708;9.394;2022-12-15T11:49:28;24.10;;;15.73;;
15848;SDS011;8024;48.708;9.394;2022-12-15T11:52:20;27.83;;;17.90;;
15848;SDS011;8024;48.708;9.394;2022-12-15T11:55:03;29.57;;;19.13;;
15848;SDS011;8024;48.708;9.394;2022-12-15T11:57:44;30.77;;;19.03;;
15848;SDS011;8024;48.708;9.394;2022-12-15T12:00:22;29.50;;;18.33;;
15848;SDS011;8024;48.708;9.394;2022-12-15T12:02:58;30.30;;;20.40;;
15848;SDS011;8024;48.708;9.394;2022-12-15T12:05:53;24.33;;;16.80;;
15848;SDS011;8024;48.708;9.394;2022-12-15T12:11:29;24.37;;;17.47;;
15848;SDS011;8024;48.708;9.394;2022-12-15T12:14:11;25.73;;;17.93;;
15848;SDS011;8024;48.708;9.394;2022-12-15T12:16:45;25.13;;;16.60;;
15848;SDS011;8024;48.708;9.394;2022-12-15T12:19:21;22.50;;;15.30;;
15848;SDS011;8024;48.708;9.394;2022-12-15T12:21:52;23.30;;;14.33;;
15848;SDS011;8024;48.708;9.394;2022-12-15T12:24:27;21.57;;;14.77;;
15848;SDS011;8024;48.708;9.394;2022-12-15T12:26:57;21.40;;;14.97;;
15848;SDS011;8024;48.708;9.394;2022-12-15T12:29:28;21.37;;;14.90;;
15848;SDS011;8024;48.708;9.394;2022-12-15T12:32:01;19.30;;;13.53;;
15848;SDS011;8024;48.708;9.394;2022-12-15T12:34:36;23.20;;;14.63;;
15848;SDS011;8024;48.708;9.394;2022-12-15T12:37:13;24.10;;;15.43;;
15848;SDS011;8024;48.708;9.394;2022-12-15T12:39:49;22.33;;;14.70;;
15848;SDS011;8024;48.708;9.394;2022-12-15T12:42:19;22.73;;;14.77;;
15848;SDS011;8024;48.708;9.394;2022-12-15T12:44:50;22.33;;;14.53;;
15848;SDS011;8024;48.708;9.394;2022-12-15T12:47:19;26.00;;;14.77;;
15848;SDS011;8024;48.708;9.394;2022-12-15T12:49:49;23.50;;;15.83;;
15848;SDS011;8024;48.708;9.394;2022-12-15T12:52:21;23.93;;;15.07;;
15848;SDS011;8024;48.708;9.394;2022-12-15T12:54:54;24.17;;;14.93;;
15848;SDS011;8024;48.708;9.394;2022-12-15T12:57:34;22.60;;;16.57;;
15848;SDS011;8024;48.708;9.394;2022-12-15T13:00:15;23.00;;;14.97;;
15848;SDS011;8024;48.708;9.394;2022-12-15T13:02:46;23.50;;;15.63;;
15848;SDS011;8024;48.708;9.394;2022-12-15T13:05:24;23.17;;;15.27;;
15848;SDS011;8024;48.708;9.394;2022-12-15T13:08:04;27.03;;;15.90;;
15848;SDS011;8024;48.708;9.394;2022-12-15T13:10:58;26.47;;;15.57;;
15848;SDS011;8024;48.708;9.394;2022-12-15T13:14:04;23.73;;;15.57;;
15848;SDS011;8024;48.708;9.394;2022-12-15T13:16:39;23.27;;;15.27;;
15848;SDS011;8024;48.708;9.394;2022-12-15T13:19:06;25.73;;;16.90;;
15848;SDS011;8024;48.708;9.394;2022-12-15T13:21:50;25.57;;;16.27;;
15848;SDS011;8024;48.708;9.394;2022-12-15T13:24:22;26.20;;;16.77;;
15848;SDS011;8024;48.708;9.394;2022-12-15T13:27:13;26.37;;;16.87;;
15848;SDS011;8024;48.708;9.394;2022-12-15T13:29:57;25.83;;;16.90;;
15848;SDS011;8024;48.708;9.394;2022-12-15T13:32:30;24.70;;;17.40;;
15848;SDS011;8024;48.708;9.394;2022-12-15T13:35:01;30.53;;;19.07;;
15848;SDS011;8024;48.708;9.394;2022-12-15T13:37:43;28.03;;;18.70;;
15848;SDS011;8024;48.708;9.394;2022-12-15T13:40:29;30.07;;;19.90;;
15848;SDS011;8024;48.708;9.394;2022-12-15T13:43:30;34.67;;;23.57;;
15848;SDS011;8024;48.708;9.394;2022-12-15T13:46:09;35.93;;;23.10;;
15848;SDS011;8024;48.708;9.394;2022-12-15T13:48:41;32.33;;;21.07;;
15848;SDS011;8024;48.708;9.394;2022-12-15T13:51:16;32.47;;;21.27;;
15848;SDS011;8024;48.708;9.394;2022-12-15T13:53:50;28.53;;;17.33;;
15848;SDS011;8024;48.708;9.394;2022-12-15T14:02:21;27.03;;;17.90;;
15848;SDS011;8024;48.708;9.394;2022-12-15T14:07:36;27.47;;;17.33;;
15848;SDS011;8024;48.708;9.394;2022-12-15T14:10:05;30.70;;;18.83;;
15848;SDS011;8024;48.708;9.394;2022-12-15T14:12:42;30.87;;;17.80;;
15848;SDS011;8024;48.708;9.394;2022-12-15T14:15:12;30.50;;;19.50;;
15848;SDS011;8024;48.708;9.394;2022-12-15T14:17:41;30.03;;;18.40;;
15848;SDS011;8024;48.708;9.394;2022-12-15T14:20:11;29.20;;;19.37;;
15848;SDS011;8024;48.708;9.394;2022-12-15T14:22:43;28.70;;;19.20;;
15848;SDS011;8024;48.708;9.394;2022-12-15T14:25:12;29.43;;;19.17;;
15848;SDS011;8024;48.708;9.394;2022-12-15T14:27:43;30.80;;;19.03;;
15848;SDS011;8024;48.708;9.394;2022-12-15T14:30:11;29.87;;;19.27;;
15848;SDS011;8024;48.708;9.394;2022-12-15T14:32:48;26.97;;;18.43;;
15848;SDS011;8024;48.708;9.394;2022-12-15T14:35:20;29.63;;;19.47;;
15848;SDS011;8024;48.708;9.394;2022-12-15T14:37:51;31.87;;;20.67;;
15848;SDS011;8024;48.708;9.394;2022-12-15T14:40:21;28.57;;;18.10;;
15848;SDS011;8024;48.708;9.394;2022-12-15T14:42:51;31.40;;;18.10;;
15848;SDS011;8024;48.708;9.394;2022-12-15T14:45:22;31.03;;;19.57;;
15848;SDS011;8024;48.708;9.394;2022-12-15T14:47:52;28.27;;;18.40;;
15848;SDS011;8024;48.708;9.394;2022-12-15T14:50:22;29.43;;;19.03;;
15848;SDS011;8024;48.708;9.394;2022-12-15T14:52:51;29.97;;;18.57;;
15848;SDS011;8024;48.708;9.394;2022-12-15T14:55:26;28.70;;;17.60;;
15848;SDS011;8024;48.708;9.394;2022-12-15T14:57:57;28.90;;;18.93;;
15848;SDS011;8024;48.708;9.394;2022-12-15T15:00:27;28.47;;;19.60;;
15848;SDS011;8024;48.708;9.394;2022-12-15T15:03:15;29.93;;;19.57;;
15848;SDS011;8024;48.708;9.394;2022-12-15T15:05:47;29.13;;;18.77;;
15848;SDS011;8024;48.708;9.394;2022-12-15T15:08:18;26.80;;;18.03;;
15848;SDS011;8024;48.708;9.394;2022-12-15T15:10:53;27.30;;;18.30;;
15848;SDS011;8024;48.708;9.394;2022-12-15T15:13:22;30.13;;;19.60;;
15848;SDS011;8024;48.708;9.394;2022-12-15T15:15:53;29.77;;;18.67;;
15848;SDS011;8024;48.708;9.394;2022-12-15T15:18:22;30.87;;;18.53;;
15848;SDS011;8024;48.708;9.394;2022-12-15T15:20:53;31.57;;;19.20;;
15848;SDS011;8024;48.708;9.394;2022-12-15T15:23:23;31.60;;;18.90;;
15848;SDS011;8024;48.708;9.394;2022-12-15T15:25:51;28.03;;;17.93;;
15848;SDS011;8024;48.708;9.394;2022-12-15T15:28:21;27.80;;;18.13;;
15848;SDS011;8024;48.708;9.394;2022-12-15T15:30:51;28.03;;;18.43;;